sensor_id;sensor_type;location;lat;lon;timestamp;pressure;altitude;pressure_sealevel;temperature;humidity
47670;BME280;33408;52.062;11.722;2023-12-22T00:02:02;61097.88;;;-145.88;100.00
47670;BME280;33408;52.062;11.722;2023-12-22T00:05:28;61097.88;;;-145.88;100.00
47670;BME280;33408;52.062;11.722;2023-12-22T00:08:54;61097.88;;;-145.88;100.00
47670;BME280;33408;52.062;11.722;2023-12-22T00:12:21;61097.88;;;-145.88;100.00
47670;BME280;33408;52.062;11.722;2023-12-22T00:15:46;61097.88;;;-145.88;100.00
47670;BME280;33408;52.062;11.722;2023-12-22T00:19:11;61097.88;;;-145.88;100.00
47670;BME280;33408;52.062;11.722;2023-12-22T00:22:37;61097.88;;;-145.88;100.00
47670;BME280;33408;52.062;11.722;2023-12-22T00:26:03;61097.88;;;-145.88;100.00
47670;BME280;33408;52.062;11.722;2023-12-22T00:29:28;61097.88;;;-145.88;100.00
47670;BME280;33408;52.062;11.722;2023-12-22T00:32:44;61097.88;;;-145.88;100.00
47670;BME280;33408;52.062;11.722;2023-12-22T00:36:09;61097.88;;;-145.88;100.00
47670;BME280;33408;52.062;11.722;2023-12-22T00:39:35;61097.88;;;-145.88;100.00
47670;BME280;33408;52.062;11.722;2023-12-22T00:43:00;61097.88;;;-145.88;100.00
47670;BME280;33408;52.062;11.722;2023-12-22T00:46:25;61097.88;;;-145.88;100.00
47670;BME280;33408;52.062;11.722;2023-12-22T00:49:50;61097.88;;;-145.88;100.00
47670;BME280;33408;52.062;11.722;2023-12-22T00:53:15;61097.88;;;-145.88;100.00
47670;BME280;33408;52.062;11.722;2023-12-22T00:56:42;61097.88;;;-145.88;100.00
47670;BME280;33408;52.062;11.722;2023-12-22T01:00:07;61097.88;;;-145.88;100.00
47670;BME280;33408;52.062;11.722;2023-12-22T01:03:36;61097.88;;;-145.88;100.00
47670;BME280;33408;52.062;11.722;2023-12-22T01:07:01;61097.88;;;-145.88;100.00
47670;BME280;33408;52.062;11.722;2023-12-22T01:10:26;61097.88;;;-145.88;100.00
47670;BME280;33408;52.062;11.722;2023-12-22T01:13:52;61097.88;;;-145.88;100.00
47670;BME280;33408;52.062;11.722;2023-12-22T01:17:17;61097.88;;;-145.88;100.00
47670;BME280;33408;52.062;11.722;2023-12-22T01:20:42;61097.88;;;-145.88;100.00
47670;BME280;33408;52.062;11.722;2023-12-22T01:24:07;61097.88;;;-145.88;100.00
47670;BME280;33408;52.062;11.722;2023-12-22T01:27:32;61097.88;;;-145.88;100.00
47670;BME280;33408;52.062;11.722;2023-12-22T01:30:59;61097.88;;;-145.88;100.00
47670;BME280;33408;52.062;11.722;2023-12-22T01:34:24;61097.88;;;-145.88;100.00
47670;BME280;33408;52.062;11.722;2023-12-22T01:37:49;61097.88;;;-145.88;100.00
47670;BME280;33408;52.062;11.722;2023-12-22T01:41:15;61097.88;;;-145.88;100.00
47670;BME280;33408;52.062;11.722;2023-12-22T01:44:40;61097.88;;;-145.88;100.00
47670;BME280;33408;52.062;11.722;2023-12-22T01:48:06;61097.88;;;-145.88;100.00
47670;BME280;33408;52.062;11.722;2023-12-22T01:51:32;61097.88;;;-145.88;100.00
47670;BME280;33408;52.062;11.722;2023-12-22T01:54:58;61097.88;;;-145.88;100.00
47670;BME280;33408;52.062;11.722;2023-12-22T01:58:23;61097.88;;;-145.88;100.00
47670;BME280;33408;52.062;11.722;2023-12-22T02:01:50;61097.88;;;-145.88;100.00
47670;BME280;33408;52.062;11.722;2023-12-22T02:05:19;61097.88;;;-145.88;100.00
47670;BME280;33408;52.062;11.722;2023-12-22T02:08:44;61097.88;;;-145.88;100.00
47670;BME280;33408;52.062;11.722;2023-12-22T02:12:11;61097.88;;;-145.88;100.00
47670;BME280;33408;52.062;11.722;2023-12-22T02:15:36;61097.88;;;-145.88;100.00
47670;BME280;33408;52.062;11.722;2023-12-22T02:19:09;61097.88;;;-145.88;100.00
47670;BME280;33408;52.062;11.722;2023-12-22T02:22:57;61097.88;;;-145.88;100.00
47670;BME280;33408;52.062;11.722;2023-12-22T02:26:25;61097.88;;;-145.88;100.00
47670;BME280;33408;52.062;11.722;2023-12-22T02:29:54;61097.88;;;-145.88;100.00
47670;BME280;33408;52.062;11.722;2023-12-22T02:33:25;61097.88;;;-145.88;100.00
47670;BME280;33408;52.062;11.722;2023-12-22T02:36:56;61097.88;;;-145.88;100.00
47670;BME280;33408;52.062;11.722;2023-12-22T02:40:23;61097.88;;;-145.88;100.00
47670;BME280;33408;52.062;11.722;2023-12-22T02:43:50;61097.88;;;-145.88;100.00
47670;BME280;33408;52.062;11.722;2023-12-22T02:47:16;61097.88;;;-145.88;100.00
47670;BME280;33408;52.062;11.722;2023-12-22T02:50:41;61097.88;;;-145.88;100.00
47670;BME280;33408;52.062;11.722;2023-12-22T02:54:06;61097.88;;;-145.88;100.00
47670;BME280;33408;52.062;11.722;2023-12-22T02:57:33;61097.88;;;-145.88;100.00
47670;BME280;33408;52.062;11.722;2023-12-22T03:00:58;61097.88;;;-145.88;100.00
47670;BME280;33408;52.062;11.722;2023-12-22T03:04:23;61097.88;;;-145.88;100.00
47670;BME280;33408;52.062;11.722;2023-12-22T03:07:48;61097.88;;;-145.88;100.00
47670;BME280;33408;52.062;11.722;2023-12-22T03:11:13;61097.88;;;-145.88;100.00
47670;BME280;33408;52.062;11.722;2023-12-22T03:14:39;61097.88;;;-145.88;100.00
47670;BME280;33408;52.062;11.722;2023-12-22T03:18:05;61097.88;;;-145.88;100.00
47670;BME280;33408;52.062;11.722;2023-12-22T03:21:30;61097.88;;;-145.88;100.00
47670;BME280;33408;52.062;11.722;2023-12-22T03:24:55;61097.88;;;-145.88;100.00
47670;BME280;33408;52.062;11.722;2023-12-22T03:28:20;61097.88;;;-145.88;100.00
47670;BME280;33408;52.062;11.722;2023-12-22T03:31:46;61097.88;;;-145.88;100.00
47670;BME280;33408;52.062;11.722;2023-12-22T03:35:12;61097.88;;;-145.88;100.00
47670;BME280;33408;52.062;11.722;2023-12-22T03:38:37;61097.88;;;-145.88;100.00
47670;BME280;33408;52.062;11.722;2023-12-22T03:42:02;61097.88;;;-145.88;100.00
47670;BME280;33408;52.062;11.722;2023-12-22T03:45:27;61097.88;;;-145.88;100.00
47670;BME280;33408;52.062;11.722;2023-12-22T03:48:54;61097.88;;;-145.88;100.00
47670;BME280;33408;52.062;11.722;2023-12-22T03:52:19;61097.88;;;-145.88;100.00
47670;BME280;33408;52.062;11.722;2023-12-22T03:55:44;61097.88;;;-145.88;100.00
47670;BME280;33408;52.062;11.722;2023-12-22T03:59:09;61097.88;;;-145.88;100.00
47670;BME280;33408;52.062;11.722;2023-12-22T04:02:34;61097.88;;;-145.88;100.00
47670;BME280;33408;52.062;11.722;2023-12-22T04:06:01;61097.88;;;-145.88;100.00
47670;BME280;33408;52.062;11.722;2023-12-22T04:09:26;61097.88;;;-145.88;100.00
47670;BME280;33408;52.062;11.722;2023-12-22T04:12:51;61097.88;;;-145.88;100.00
47670;BME280;33408;52.062;11.722;2023-12-22T04:16:16;61097.88;;;-145.88;100.00
47670;BME280;33408;52.062;11.722;2023-12-22T04:19:41;61097.88;;;-145.88;100.00
47670;BME280;33408;52.062;11.722;2023-12-22T04:23:07;61097.88;;;-145.88;100.00
47670;BME280;33408;52.062;11.722;2023-12-22T04:26:32;61097.88;;;-145.88;100.00
47670;BME280;33408;52.062;11.722;2023-12-22T04:29:57;61097.88;;;-145.88;100.00
47670;BME280;33408;52.062;11.722;2023-12-22T04:33:22;61097.88;;;-145.88;100.00
47670;BME280;33408;52.062;11.722;2023-12-22T04:36:47;61097.88;;;-145.88;100.00
47670;BME280;33408;52.062;11.722;2023-12-22T04:40:14;61097.88;;;-145.88;100.00
47670;BME280;33408;52.062;11.722;2023-12-22T04:43:39;61097.88;;;-145.88;100.00
47670;BME280;33408;52.062;11.722;2023-12-22T04:47:04;61097.88;;;-145.88;100.00
47670;BME280;33408;52.062;11.722;2023-12-22T04:50:29;61097.88;;;-145.88;100.00
47670;BME280;33408;52.062;11.722;2023-12-22T04:53:54;61097.88;;;-145.88;100.00
47670;BME280;33408;52.062;11.722;2023-12-22T04:57:20;61097.88;;;-145.88;100.00
47670;BME280;33408;52.062;11.722;2023-12-22T05:00:46;61097.88;;;-145.88;100.00
47670;BME280;33408;52.062;11.722;2023-12-22T05:04:11;61097.88;;;-145.88;100.00
47670;BME280;33408;52.062;11.722;2023-12-22T05:07:36;61097.88;;;-145.88;100.00
47670;BME280;33408;52.062;11.722;2023-12-22T05:11:01;61097.88;;;-145.88;100.00
47670;BME280;33408;52.062;11.722;2023-12-22T05:14:31;61097.88;;;-145.88;100.00
47670;BME280;33408;52.062;11.722;2023-12-22T05:17:56;61097.88;;;-145.88;100.00
47670;BME280;33408;52.062;11.722;2023-12-22T05:21:21;61097.88;;;-145.88;100.00
47670;BME280;33408;52.062;11.722;2023-12-22T05:24:46;61097.88;;;-145.88;100.00
47670;BME280;33408;52.062;11.722;2023-12-22T05:28:11;61097.88;;;-145.88;100.00
47670;BME280;33408;52.062;11.722;2023-12-22T05:31:38;61097.88;;;-145.88;100.00
47670;BME280;33408;52.062;11.722;2023-12-22T05:35:04;61097.88;;;-145.88;100.00
47670;BME280;33408;52.062;11.722;2023-12-22T05:38:29;61097.88;;;-145.88;100.00
47670;BME280;33408;52.062;11.722;2023-12-22T05:41:54;61097.88;;;-145.88;100.00
47670;BME280;33408;52.062;11.722;2023-12-22T05:45:19;61097.88;;;-145.88;100.00
47670;BME280;33408;52.062;11.722;2023-12-22T05:48:46;61097.88;;;-145.88;100.00
47670;BME280;33408;52.062;11.722;2023-12-22T05:52:11;61097.88;;;-145.88;100.00
47670;BME280;33408;52.062;11.722;2023-12-22T05:55:36;61097.88;;;-145.88;100.00
47670;BME280;33408;52.062;11.722;2023-12-22T05:59:02;61097.88;;;-145.88;100.00
47670;BME280;33408;52.062;11.722;2023-12-22T06:02:27;61097.88;;;-145.88;100.00
47670;BME280;33408;52.062;11.722;2023-12-22T06:05:53;61097.88;;;-145.88;100.00
47670;BME280;33408;52.062;11.722;2023-12-22T06:09:18;61097.88;;;-145.88;100.00
47670;BME280;33408;52.062;11.722;2023-12-22T06:12:44;61097.88;;;-145.88;100.00
47670;BME280;33408;52.062;11.722;2023-12-22T06:16:12;61097.88;;;-145.88;100.00
47670;BME280;33408;52.062;11.722;2023-12-22T06:19:38;61097.88;;;-145.88;100.00
47670;BME280;33408;52.062;11.722;2023-12-22T06:23:04;61097.88;;;-145.88;100.00
47670;BME280;33408;52.062;11.722;2023-12-22T06:26:30;61097.88;;;-145.88;100.00
47670;BME280;33408;52.062;11.722;2023-12-22T06:29:55;61097.88;;;-145.88;100.00
47670;BME280;33408;52.062;11.722;2023-12-22T06:33:21;61097.88;;;-145.88;100.00
47670;BME280;33408;52.062;11.722;2023-12-22T06:36:46;61097.88;;;-145.88;100.00
47670;BME280;33408;52.062;11.722;2023-12-22T06:40:12;61097.88;;;-145.88;100.00
47670;BME280;33408;52.062;11.722;2023-12-22T06:43:37;61097.88;;;-145.88;100.00
47670;BME280;33408;52.062;11.722;2023-12-22T06:47:12;61097.88;;;-145.88;100.00
47670;BME280;33408;52.062;11.722;2023-12-22T06:50:37;61097.88;;;-145.88;100.00
47670;BME280;33408;52.062;11.722;2023-12-22T06:54:03;61097.88;;;-145.88;100.00
47670;BME280;33408;52.062;11.722;2023-12-22T06:57:31;61097.88;;;-145.88;100.00
47670;BME280;33408;52.062;11.722;2023-12-22T07:00:56;61097.88;;;-145.88;100.00
47670;BME280;33408;52.062;11.722;2023-12-22T07:04:21;61097.88;;;-145.88;100.00
47670;BME280;33408;52.062;11.722;2023-12-22T07:07:46;61097.88;;;-145.88;100.00
47670;BME280;33408;52.062;11.722;2023-12-22T07:11:11;61097.88;;;-145.88;100.00
47670;BME280;33408;52.062;11.722;2023-12-22T07:14:37;61097.88;;;-145.88;100.00
47670;BME280;33408;52.062;11.722;2023-12-22T07:18:03;61097.88;;;-145.88;100.00
47670;BME280;33408;52.062;11.722;2023-12-22T07:21:28;61097.88;;;-145.88;100.00
47670;BME280;33408;52.062;11.722;2023-12-22T07:24:53;61097.88;;;-145.88;100.00
47670;BME280;33408;52.062;11.722;2023-12-22T07:28:19;61097.88;;;-145.88;100.00
47670;BME280;33408;52.062;11.722;2023-12-22T07:31:45;61097.88;;;-145.88;100.00
47670;BME280;33408;52.062;11.722;2023-12-22T07:35:10;61097.88;;;-145.88;100.00
47670;BME280;33408;52.062;11.722;2023-12-22T07:38:36;61097.88;;;-145.88;100.00
47670;BME280;33408;52.062;11.722;2023-12-22T07:42:01;61097.88;;;-145.88;100.00
47670;BME280;33408;52.062;11.722;2023-12-22T07:45:26;61097.88;;;-145.88;100.00
47670;BME280;33408;52.062;11.722;2023-12-22T07:48:53;61097.88;;;-145.88;100.00
47670;BME280;33408;52.062;11.722;2023-12-22T07:52:18;61097.88;;;-145.88;100.00
47670;BME280;33408;52.062;11.722;2023-12-22T07:55:43;61097.88;;;-145.88;100.00
47670;BME280;33408;52.062;11.722;2023-12-22T07:59:09;61097.88;;;-145.88;100.00
47670;BME280;33408;52.062;11.722;2023-12-22T08:02:34;61097.88;;;-145.88;100.00
47670;BME280;33408;52.062;11.722;2023-12-22T08:06:00;61097.88;;;-145.88;100.00
47670;BME280;33408;52.062;11.722;2023-12-22T08:09:25;61097.88;;;-145.88;100.00
47670;BME280;33408;52.062;11.722;2023-12-22T08:12:50;61097.88;;;-145.88;100.00
47670;BME280;33408;52.062;11.722;2023-12-22T08:16:15;61097.88;;;-145.88;100.00
47670;BME280;33408;52.062;11.722;2023-12-22T08:19:40;61097.88;;;-145.88;100.00
47670;BME280;33408;52.062;11.722;2023-12-22T08:23:08;61097.88;;;-145.88;100.00
47670;BME280;33408;52.062;11.722;2023-12-22T08:26:33;61097.88;;;-145.88;100.00
47670;BME280;33408;52.062;11.722;2023-12-22T08:29:58;61097.88;;;-145.88;100.00
47670;BME280;33408;52.062;11.722;2023-12-22T08:33:24;61097.88;;;-145.88;100.00
47670;BME280;33408;52.062;11.722;2023-12-22T08:36:49;61097.88;;;-145.88;100.00
47670;BME280;33408;52.062;11.722;2023-12-22T08:40:15;61097.88;;;-145.88;100.00
47670;BME280;33408;52.062;11.722;2023-12-22T08:43:40;61097.88;;;-145.88;100.00
47670;BME280;33408;52.062;11.722;2023-12-22T08:47:06;61097.88;;;-145.88;100.00
47670;BME280;33408;52.062;11.722;2023-12-22T08:50:31;61097.88;;;-145.88;100.00
47670;BME280;33408;52.062;11.722;2023-12-22T08:53:56;61097.88;;;-145.88;100.00
47670;BME280;33408;52.062;11.722;2023-12-22T08:57:22;61097.88;;;-145.88;100.00
47670;BME280;33408;52.062;11.722;2023-12-22T09:00:48;61097.88;;;-145.88;100.00
47670;BME280;33408;52.062;11.722;2023-12-22T09:04:13;61097.88;;;-145.88;100.00
47670;BME280;33408;52.062;11.722;2023-12-22T09:07:39;61097.88;;;-145.88;100.00
47670;BME280;33408;52.062;11.722;2023-12-22T09:11:05;61097.88;;;-145.88;100.00
47670;BME280;33408;52.062;11.722;2023-12-22T09:14:31;61097.88;;;-145.88;100.00
47670;BME280;33408;52.062;11.722;2023-12-22T09:17:56;61097.88;;;-145.88;100.00
47670;BME280;33408;52.062;11.722;2023-12-22T09:21:21;61097.88;;;-145.88;100.00
47670;BME280;33408;52.062;11.722;2023-12-22T09:24:47;61097.88;;;-145.88;100.00
47670;BME280;33408;52.062;11.722;2023-12-22T09:28:12;61097.88;;;-145.88;100.00
47670;BME280;33408;52.062;11.722;2023-12-22T09:31:39;61097.88;;;-145.88;100.00
47670;BME280;33408;52.062;11.722;2023-12-22T09:35:05;61097.88;;;-145.88;100.00
47670;BME280;33408;52.062;11.722;2023-12-22T09:38:31;61097.88;;;-145.88;100.00
47670;BME280;33408;52.062;11.722;2023-12-22T09:41:56;61097.88;;;-145.88;100.00
47670;BME280;33408;52.062;11.722;2023-12-22T09:45:21;61097.88;;;-145.88;100.00
47670;BME280;33408;52.062;11.722;2023-12-22T09:48:51;61097.88;;;-145.88;100.00
47670;BME280;33408;52.062;11.722;2023-12-22T09:52:19;61097.88;;;-145.88;100.00
47670;BME280;33408;52.062;11.722;2023-12-22T09:55:46;61097.88;;;-145.88;100.00
47670;BME280;33408;52.062;11.722;2023-12-22T09:59:12;61097.88;;;-145.88;100.00
47670;BME280;33408;52.062;11.722;2023-12-22T10:02:41;61097.88;;;-145.88;100.00
47670;BME280;33408;52.062;11.722;2023-12-22T10:06:08;61097.88;;;-145.88;100.00
47670;BME280;33408;52.062;11.722;2023-12-22T10:09:33;61097.88;;;-145.88;100.00
47670;BME280;33408;52.062;11.722;2023-12-22T10:13:01;61097.88;;;-145.88;100.00
47670;BME280;33408;52.062;11.722;2023-12-22T10:16:31;61097.88;;;-145.88;100.00
47670;BME280;33408;52.062;11.722;2023-12-22T10:19:57;61097.88;;;-145.88;100.00
47670;BME280;33408;52.062;11.722;2023-12-22T10:22:48;61097.88;;;-145.88;100.00
47670;BME280;33408;52.062;11.722;2023-12-22T10:26:14;61097.88;;;-145.88;100.00
47670;BME280;33408;52.062;11.722;2023-12-22T10:29:40;61097.88;;;-145.88;100.00
47670;BME280;33408;52.062;11.722;2023-12-22T10:33:06;61097.88;;;-145.88;100.00
47670;BME280;33408;52.062;11.722;2023-12-22T10:36:31;61097.88;;;-145.88;100.00
47670;BME280;33408;52.062;11.722;2023-12-22T10:39:58;61097.88;;;-145.88;100.00
47670;BME280;33408;52.062;11.722;2023-12-22T10:43:24;61097.88;;;-145.88;100.00
47670;BME280;33408;52.062;11.722;2023-12-22T10:46:50;61097.88;;;-145.88;100.00
47670;BME280;33408;52.062;11.722;2023-12-22T10:50:15;61097.88;;;-145.88;100.00
47670;BME280;33408;52.062;11.722;2023-12-22T10:53:47;61097.88;;;-145.88;100.00
47670;BME280;33408;52.062;11.722;2023-12-22T10:57:16;61097.88;;;-145.88;100.00
47670;BME280;33408;52.062;11.722;2023-12-22T11:00:44;61097.88;;;-145.88;100.00
47670;BME280;33408;52.062;11.722;2023-12-22T11:04:12;61097.88;;;-145.88;100.00
47670;BME280;33408;52.062;11.722;2023-12-22T11:07:39;61097.88;;;-145.88;100.00
47670;BME280;33408;52.062;11.722;2023-12-22T11:11:10;61097.88;;;-145.88;100.00
47670;BME280;33408;52.062;11.722;2023-12-22T11:14:41;61097.88;;;-145.88;100.00
47670;BME280;33408;52.062;11.722;2023-12-22T11:18:08;61097.88;;;-145.88;100.00
47670;BME280;33408;52.062;11.722;2023-12-22T11:21:33;61097.88;;;-145.88;100.00
47670;BME280;33408;52.062;11.722;2023-12-22T11:25:01;61097.88;;;-145.88;100.00
47670;BME280;33408;52.062;11.722;2023-12-22T11:28:27;61097.88;;;-145.88;100.00
47670;BME280;33408;52.062;11.722;2023-12-22T11:31:54;61097.88;;;-145.88;100.00
47670;BME280;33408;52.062;11.722;2023-12-22T11:35:20;61097.88;;;-145.88;100.00
47670;BME280;33408;52.062;11.722;2023-12-22T11:38:47;61097.88;;;-145.88;100.00
47670;BME280;33408;52.062;11.722;2023-12-22T11:42:16;61097.88;;;-145.88;100.00
47670;BME280;33408;52.062;11.722;2023-12-22T11:45:43;61097.88;;;-145.88;100.00
47670;BME280;33408;52.062;11.722;2023-12-22T11:49:09;61097.88;;;-145.88;100.00
47670;BME280;33408;52.062;11.722;2023-12-22T11:52:35;61097.88;;;-145.88;100.00
47670;BME280;33408;52.062;11.722;2023-12-22T11:56:01;61097.88;;;-145.88;100.00
47670;BME280;33408;52.062;11.722;2023-12-22T11:59:32;61097.88;;;-145.88;100.00
47670;BME280;33408;52.062;11.722;2023-12-22T12:03:02;61097.88;;;-145.88;100.00
47670;BME280;33408;52.062;11.722;2023-12-22T12:06:32;61097.88;;;-145.88;100.00
47670;BME280;33408;52.062;11.722;2023-12-22T12:10:02;61097.88;;;-145.88;100.00
47670;BME280;33408;52.062;11.722;2023-12-22T12:13:23;61097.88;;;-145.88;100.00
47670;BME280;33408;52.062;11.722;2023-12-22T12:15:51;61097.88;;;-145.88;100.00
47670;BME280;33408;52.062;11.722;2023-12-22T12:19:20;61097.88;;;-145.88;100.00
47670;BME280;33408;52.062;11.722;2023-12-22T12:22:46;61097.88;;;-145.88;100.00
47670;BME280;33408;52.062;11.722;2023-12-22T12:26:12;61097.88;;;-145.88;100.00
47670;BME280;33408;52.062;11.722;2023-12-22T12:29:42;61097.88;;;-145.88;100.00
47670;BME280;33408;52.062;11.722;2023-12-22T12:33:12;61097.88;;;-145.88;100.00
47670;BME280;33408;52.062;11.722;2023-12-22T12:36:38;61097.88;;;-145.88;100.00
47670;BME280;33408;52.062;11.722;2023-12-22T12:40:07;61097.88;;;-145.88;100.00
47670;BME280;33408;52.062;11.722;2023-12-22T12:43:33;61097.88;;;-145.88;100.00
47670;BME280;33408;52.062;11.722;2023-12-22T12:47:10;61097.88;;;-145.88;100.00
47670;BME280;33408;52.062;11.722;2023-12-22T12:50:36;61097.88;;;-145.88;100.00
47670;BME280;33408;52.062;11.722;2023-12-22T12:54:01;61097.88;;;-145.88;100.00
47670;BME280;33408;52.062;11.722;2023-12-22T12:57:27;61097.88;;;-145.88;100.00
47670;BME280;33408;52.062;11.722;2023-12-22T13:00:53;61097.88;;;-145.88;100.00
47670;BME280;33408;52.062;11.722;2023-12-22T13:04:22;61097.88;;;-145.88;100.00
47670;BME280;33408;52.062;11.722;2023-12-22T13:07:47;61097.88;;;-145.88;100.00
47670;BME280;33408;52.062;11.722;2023-12-22T13:11:20;61097.88;;;-145.88;100.00
47670;BME280;33408;52.062;11.722;2023-12-22T13:14:47;61097.88;;;-145.88;100.00
47670;BME280;33408;52.062;11.722;2023-12-22T13:18:12;61097.88;;;-145.88;100.00
47670;BME280;33408;52.062;11.722;2023-12-22T13:21:37;61097.88;;;-145.88;100.00
47670;BME280;33408;52.062;11.722;2023-12-22T13:25:09;61097.88;;;-145.88;100.00
47670;BME280;33408;52.062;11.722;2023-12-22T13:28:44;61097.88;;;-145.88;100.00
47670;BME280;33408;52.062;11.722;2023-12-22T13:32:15;61097.88;;;-145.88;100.00
47670;BME280;33408;52.062;11.722;2023-12-22T13:35:45;61097.88;;;-145.88;100.00
47670;BME280;33408;52.062;11.722;2023-12-22T13:39:11;61097.88;;;-145.88;100.00
47670;BME280;33408;52.062;11.722;2023-12-22T13:42:37;61097.88;;;-145.88;100.00
47670;BME280;33408;52.062;11.722;2023-12-22T13:46:03;61097.88;;;-145.88;100.00
47670;BME280;33408;52.062;11.722;2023-12-22T13:49:32;61097.88;;;-145.88;100.00
47670;BME280;33408;52.062;11.722;2023-12-22T13:53:01;61097.88;;;-145.88;100.00
47670;BME280;33408;52.062;11.722;2023-12-22T13:56:32;61097.88;;;-145.88;100.00
47670;BME280;33408;52.062;11.722;2023-12-22T13:59:59;61097.88;;;-145.88;100.00
47670;BME280;33408;52.062;11.722;2023-12-22T14:03:24;61097.88;;;-145.88;100.00
47670;BME280;33408;52.062;11.722;2023-12-22T14:06:52;61097.88;;;-145.88;100.00
47670;BME280;33408;52.062;11.722;2023-12-22T14:10:17;61097.88;;;-145.88;100.00
47670;BME280;33408;52.062;11.722;2023-12-22T14:13:42;61097.88;;;-145.88;100.00
47670;BME280;33408;52.062;11.722;2023-12-22T14:17:08;61097.88;;;-145.88;100.00
47670;BME280;33408;52.062;11.722;2023-12-22T14:20:33;61097.88;;;-145.88;100.00
47670;BME280;33408;52.062;11.722;2023-12-22T14:23:59;61097.88;;;-145.88;100.00
47670;BME280;33408;52.062;11.722;2023-12-22T14:27:24;61097.88;;;-145.88;100.00
47670;BME280;33408;52.062;11.722;2023-12-22T14:30:49;61097.88;;;-145.88;100.00
47670;BME280;33408;52.062;11.722;2023-12-22T14:34:15;61097.88;;;-145.88;100.00
47670;BME280;33408;52.062;11.722;2023-12-22T14:37:40;61097.88;;;-145.88;100.00
47670;BME280;33408;52.062;11.722;2023-12-22T14:41:09;61097.88;;;-145.88;100.00
47670;BME280;33408;52.062;11.722;2023-12-22T14:44:34;61097.88;;;-145.88;100.00
47670;BME280;33408;52.062;11.722;2023-12-22T14:47:59;61097.88;;;-145.88;100.00
47670;BME280;33408;52.062;11.722;2023-12-22T14:51:24;61097.88;;;-145.88;100.00
47670;BME280;33408;52.062;11.722;2023-12-22T14:53:51;99021.47;;;4.25;100.00
47670;BME280;33408;52.062;11.722;2023-12-22T14:56:19;99022.84;;;3.98;100.00
47670;BME280;33408;52.062;11.722;2023-12-22T14:58:45;98989.84;;;3.81;100.00
47670;BME280;33408;52.062;11.722;2023-12-22T15:01:12;99000.22;;;3.73;100.00
47670;BME280;33408;52.062;11.722;2023-12-22T15:03:39;99013.75;;;3.80;100.00
47670;BME280;33408;52.062;11.722;2023-12-22T15:06:06;99018.41;;;3.61;100.00
47670;BME280;33408;52.062;11.722;2023-12-22T15:09:02;99018.41;;;3.61;100.00
47670;BME280;33408;52.062;11.722;2023-12-22T15:11:30;99022.59;;;3.63;100.00
47670;BME280;33408;52.062;11.722;2023-12-22T15:14:55;61097.88;;;-145.88;100.00
47670;BME280;33408;52.062;11.722;2023-12-22T15:18:20;61097.88;;;-145.88;100.00
47670;BME280;33408;52.062;11.722;2023-12-22T15:21:45;61097.88;;;-145.88;100.00
47670;BME280;33408;52.062;11.722;2023-12-22T15:25:10;61097.88;;;-145.88;100.00
47670;BME280;33408;52.062;11.722;2023-12-22T15:28:37;61097.88;;;-145.88;100.00
47670;BME280;33408;52.062;11.722;2023-12-22T15:32:06;61097.88;;;-145.88;100.00
47670;BME280;33408;52.062;11.722;2023-12-22T15:35:31;61097.88;;;-145.88;100.00
47670;BME280;33408;52.062;11.722;2023-12-22T15:38:56;61097.88;;;-145.88;100.00
47670;BME280;33408;52.062;11.722;2023-12-22T15:42:21;61097.88;;;-145.88;100.00
47670;BME280;33408;52.062;11.722;2023-12-22T15:45:48;61097.88;;;-145.88;100.00
47670;BME280;33408;52.062;11.722;2023-12-22T15:49:13;61097.88;;;-145.88;100.00
47670;BME280;33408;52.062;11.722;2023-12-22T15:52:38;61097.88;;;-145.88;100.00
47670;BME280;33408;52.062;11.722;2023-12-22T15:56:04;61097.88;;;-145.88;100.00
47670;BME280;33408;52.062;11.722;2023-12-22T15:59:31;61097.88;;;-145.88;100.00
47670;BME280;33408;52.062;11.722;2023-12-22T16:02:57;61097.88;;;-145.88;100.00
47670;BME280;33408;52.062;11.722;2023-12-22T16:06:22;61097.88;;;-145.88;100.00
47670;BME280;33408;52.062;11.722;2023-12-22T16:09:48;61097.88;;;-145.88;100.00
47670;BME280;33408;52.062;11.722;2023-12-22T16:13:13;61097.88;;;-145.88;100.00
47670;BME280;33408;52.062;11.722;2023-12-22T16:16:39;61097.88;;;-145.88;100.00
47670;BME280;33408;52.062;11.722;2023-12-22T16:20:05;61097.88;;;-145.88;100.00
47670;BME280;33408;52.062;11.722;2023-12-22T16:23:32;61097.88;;;-145.88;100.00
47670;BME280;33408;52.062;11.722;2023-12-22T16:26:57;61097.88;;;-145.88;100.00
47670;BME280;33408;52.062;11.722;2023-12-22T16:30:23;61097.88;;;-145.88;100.00
47670;BME280;33408;52.062;11.722;2023-12-22T16:33:48;61097.88;;;-145.88;100.00
47670;BME280;33408;52.062;11.722;2023-12-22T16:37:14;61097.88;;;-145.88;100.00
47670;BME280;33408;52.062;11.722;2023-12-22T16:40:46;61097.88;;;-145.88;100.00
47670;BME280;33408;52.062;11.722;2023-12-22T16:44:11;61097.88;;;-145.88;100.00
47670;BME280;33408;52.062;11.722;2023-12-22T16:47:38;61097.88;;;-145.88;100.00
47670;BME280;33408;52.062;11.722;2023-12-22T16:51:04;61097.88;;;-145.88;100.00
47670;BME280;33408;52.062;11.722;2023-12-22T16:54:31;61097.88;;;-145.88;100.00
47670;BME280;33408;52.062;11.722;2023-12-22T16:57:56;61097.88;;;-145.88;100.00
47670;BME280;33408;52.062;11.722;2023-12-22T17:01:21;61097.88;;;-145.88;100.00
47670;BME280;33408;52.062;11.722;2023-12-22T17:04:46;61097.88;;;-145.88;100.00
47670;BME280;33408;52.062;11.722;2023-12-22T17:08:11;61097.88;;;-145.88;100.00